sensor_id;sensor_type;location;lat;lon;timestamp;P1;durP1;ratioP1;P2;durP2;ratioP2
18102;SDS011;9178;51.120;6.192;2023-06-14T00:01:30;6.50;;;4.28;;
18102;SDS011;9178;51.120;6.192;2023-06-14T00:04:01;6.63;;;4.70;;
18102;SDS011;9178;51.120;6.192;2023-06-14T00:06:29;5.30;;;4.80;;
18102;SDS011;9178;51.120;6.192;2023-06-14T00:08:59;5.40;;;4.10;;
18102;SDS011;9178;51.120;6.192;2023-06-14T00:11:26;7.85;;;4.07;;
18102;SDS011;9178;51.120;6.192;2023-06-14T00:13:59;4.47;;;4.07;;
18102;SDS011;9178;51.120;6.192;2023-06-14T00:16:28;4.67;;;4.27;;
18102;SDS011;9178;51.120;6.192;2023-06-14T00:18:55;6.83;;;4.07;;
18102;SDS011;9178;51.120;6.192;2023-06-14T00:21:24;5.07;;;4.57;;
18102;SDS011;9178;51.120;6.192;2023-06-14T00:23:53;5.00;;;4.50;;
18102;SDS011;9178;51.120;6.192;2023-06-14T00:26:20;4.53;;;4.13;;
18102;SDS011;9178;51.120;6.192;2023-06-14T00:28:48;5.07;;;3.97;;
18102;SDS011;9178;51.120;6.192;2023-06-14T00:31:16;7.83;;;4.57;;
18102;SDS011;9178;51.120;6.192;2023-06-14T00:33:43;8.00;;;4.50;;
18102;SDS011;9178;51.120;6.192;2023-06-14T00:36:11;6.93;;;4.47;;
18102;SDS011;9178;51.120;6.192;2023-06-14T00:38:40;5.13;;;4.33;;
18102;SDS011;9178;51.120;6.192;2023-06-14T00:41:07;6.47;;;4.03;;
18102;SDS011;9178;51.120;6.192;2023-06-14T00:43:34;5.40;;;3.80;;
18102;SDS011;9178;51.120;6.192;2023-06-14T00:46:02;4.60;;;4.17;;
18102;SDS011;9178;51.120;6.192;2023-06-14T00:48:29;7.60;;;4.10;;
18102;SDS011;9178;51.120;6.192;2023-06-14T00:53:36;6.80;;;4.53;;
18102;SDS011;9178;51.120;6.192;2023-06-14T00:56:07;4.47;;;4.13;;
18102;SDS011;9178;51.120;6.192;2023-06-14T00:58:34;6.30;;;4.20;;
18102;SDS011;9178;51.120;6.192;2023-06-14T01:01:02;4.83;;;4.20;;
18102;SDS011;9178;51.120;6.192;2023-06-14T01:03:29;5.50;;;4.53;;
18102;SDS011;9178;51.120;6.192;2023-06-14T01:05:59;4.73;;;4.00;;
18102;SDS011;9178;51.120;6.192;2023-06-14T01:08:38;8.27;;;4.57;;
18102;SDS011;9178;51.120;6.192;2023-06-14T01:11:15;5.40;;;4.53;;
18102;SDS011;9178;51.120;6.192;2023-06-14T01:13:48;7.13;;;4.67;;
18102;SDS011;9178;51.120;6.192;2023-06-14T01:16:18;5.60;;;4.63;;
18102;SDS011;9178;51.120;6.192;2023-06-14T01:18:48;5.40;;;4.57;;
18102;SDS011;9178;51.120;6.192;2023-06-14T01:21:23;5.30;;;4.80;;
18102;SDS011;9178;51.120;6.192;2023-06-14T01:23:55;7.13;;;5.10;;
18102;SDS011;9178;51.120;6.192;2023-06-14T01:26:24;7.13;;;4.50;;
18102;SDS011;9178;51.120;6.192;2023-06-14T01:28:54;6.00;;;4.80;;
18102;SDS011;9178;51.120;6.192;2023-06-14T01:31:23;5.47;;;4.60;;
18102;SDS011;9178;51.120;6.192;2023-06-14T01:33:52;7.73;;;5.80;;
18102;SDS011;9178;51.120;6.192;2023-06-14T01:36:20;5.10;;;4.60;;
18102;SDS011;9178;51.120;6.192;2023-06-14T01:38:49;8.33;;;5.20;;
18102;SDS011;9178;51.120;6.192;2023-06-14T01:41:22;6.07;;;4.73;;
18102;SDS011;9178;51.120;6.192;2023-06-14T01:43:53;5.97;;;4.73;;
18102;SDS011;9178;51.120;6.192;2023-06-14T01:46:25;5.80;;;5.20;;
18102;SDS011;9178;51.120;6.192;2023-06-14T01:48:52;7.60;;;5.13;;
18102;SDS011;9178;51.120;6.192;2023-06-14T01:51:20;7.00;;;5.13;;
18102;SDS011;9178;51.120;6.192;2023-06-14T01:53:53;6.67;;;5.07;;
18102;SDS011;9178;51.120;6.192;2023-06-14T01:56:29;5.80;;;5.20;;
18102;SDS011;9178;51.120;6.192;2023-06-14T01:58:56;7.33;;;5.10;;
18102;SDS011;9178;51.120;6.192;2023-06-14T02:01:23;6.50;;;5.00;;
18102;SDS011;9178;51.120;6.192;2023-06-14T02:03:51;5.23;;;4.70;;
18102;SDS011;9178;51.120;6.192;2023-06-14T02:06:21;5.77;;;5.13;;
18102;SDS011;9178;51.120;6.192;2023-06-14T02:08:50;8.20;;;5.40;;
18102;SDS011;9178;51.120;6.192;2023-06-14T02:11:17;7.87;;;5.40;;
18102;SDS011;9178;51.120;6.192;2023-06-14T02:13:47;9.73;;;5.43;;
18102;SDS011;9178;51.120;6.192;2023-06-14T02:16:15;8.27;;;5.10;;
18102;SDS011;9178;51.120;6.192;2023-06-14T02:18:43;6.40;;;5.10;;
18102;SDS011;9178;51.120;6.192;2023-06-14T02:21:10;7.63;;;5.90;;
18102;SDS011;9178;51.120;6.192;2023-06-14T02:23:38;7.53;;;5.20;;
18102;SDS011;9178;51.120;6.192;2023-06-14T02:26:05;7.73;;;5.57;;
18102;SDS011;9178;51.120;6.192;2023-06-14T02:28:32;7.13;;;5.20;;
18102;SDS011;9178;51.120;6.192;2023-06-14T02:31:04;7.10;;;5.00;;
18102;SDS011;9178;51.120;6.192;2023-06-14T02:33:31;6.07;;;5.13;;
18102;SDS011;9178;51.120;6.192;2023-06-14T02:35:59;8.53;;;5.30;;
18102;SDS011;9178;51.120;6.192;2023-06-14T02:38:27;7.63;;;5.93;;
18102;SDS011;9178;51.120;6.192;2023-06-14T02:40:55;8.57;;;5.43;;
18102;SDS011;9178;51.120;6.192;2023-06-14T02:43:22;7.63;;;5.47;;
18102;SDS011;9178;51.120;6.192;2023-06-14T02:45:50;7.87;;;5.30;;
18102;SDS011;9178;51.120;6.192;2023-06-14T02:48:19;8.27;;;5.90;;
18102;SDS011;9178;51.120;6.192;2023-06-14T02:50:46;6.23;;;5.27;;
18102;SDS011;9178;51.120;6.192;2023-06-14T02:53:14;7.20;;;5.37;;
18102;SDS011;9178;51.120;6.192;2023-06-14T02:55:47;7.40;;;5.10;;
18102;SDS011;9178;51.120;6.192;2023-06-14T02:58:14;10.10;;;5.80;;
18102;SDS011;9178;51.120;6.192;2023-06-14T03:00:50;5.83;;;5.13;;
18102;SDS011;9178;51.120;6.192;2023-06-14T03:03:19;6.17;;;5.57;;
18102;SDS011;9178;51.120;6.192;2023-06-14T03:05:50;6.73;;;5.30;;
18102;SDS011;9178;51.120;6.192;2023-06-14T03:08:19;5.97;;;5.37;;
18102;SDS011;9178;51.120;6.192;2023-06-14T03:10:52;7.40;;;5.20;;
18102;SDS011;9178;51.120;6.192;2023-06-14T03:13:21;7.03;;;5.60;;
18102;SDS011;9178;51.120;6.192;2023-06-14T03:15:48;7.00;;;5.60;;
18102;SDS011;9178;51.120;6.192;2023-06-14T03:18:17;8.10;;;5.30;;
18102;SDS011;9178;51.120;6.192;2023-06-14T03:20:49;6.70;;;5.43;;
18102;SDS011;9178;51.120;6.192;2023-06-14T03:23:16;5.80;;;5.10;;
18102;SDS011;9178;51.120;6.192;2023-06-14T03:25:46;5.57;;;4.93;;
18102;SDS011;9178;51.120;6.192;2023-06-14T03:28:15;6.40;;;5.00;;
18102;SDS011;9178;51.120;6.192;2023-06-14T03:30:47;5.83;;;4.87;;
18102;SDS011;9178;51.120;6.192;2023-06-14T03:33:14;6.07;;;5.37;;
18102;SDS011;9178;51.120;6.192;2023-06-14T03:35:42;6.10;;;5.23;;
18102;SDS011;9178;51.120;6.192;2023-06-14T03:38:11;6.57;;;5.50;;
18102;SDS011;9178;51.120;6.192;2023-06-14T03:40:38;8.83;;;6.10;;
18102;SDS011;9178;51.120;6.192;2023-06-14T03:43:06;6.83;;;5.20;;
18102;SDS011;9178;51.120;6.192;2023-06-14T03:45:33;6.00;;;5.40;;
18102;SDS011;9178;51.120;6.192;2023-06-14T03:48:00;8.17;;;5.23;;
18102;SDS011;9178;51.120;6.192;2023-06-14T03:50:28;7.30;;;5.53;;
18102;SDS011;9178;51.120;6.192;2023-06-14T03:52:57;6.57;;;5.70;;
18102;SDS011;9178;51.120;6.192;2023-06-14T03:55:27;5.80;;;5.30;;
18102;SDS011;9178;51.120;6.192;2023-06-14T03:57:58;6.13;;;5.57;;
18102;SDS011;9178;51.120;6.192;2023-06-14T04:00:27;8.23;;;5.90;;
18102;SDS011;9178;51.120;6.192;2023-06-14T04:02:59;7.50;;;5.70;;
18102;SDS011;9178;51.120;6.192;2023-06-14T04:05:28;7.87;;;5.43;;
18102;SDS011;9178;51.120;6.192;2023-06-14T04:07:56;6.70;;;5.67;;
18102;SDS011;9178;51.120;6.192;2023-06-14T04:10:27;8.60;;;5.97;;
18102;SDS011;9178;51.120;6.192;2023-06-14T04:12:55;6.23;;;5.47;;
18102;SDS011;9178;51.120;6.192;2023-06-14T04:15:25;6.00;;;5.37;;
18102;SDS011;9178;51.120;6.192;2023-06-14T04:17:55;6.70;;;5.40;;
18102;SDS011;9178;51.120;6.192;2023-06-14T04:20:22;6.10;;;5.33;;
18102;SDS011;9178;51.120;6.192;2023-06-14T04:22:56;7.50;;;5.70;;
18102;SDS011;9178;51.120;6.192;2023-06-14T04:25:40;7.97;;;5.20;;
18102;SDS011;9178;51.120;6.192;2023-06-14T04:28:21;6.13;;;5.50;;
18102;SDS011;9178;51.120;6.192;2023-06-14T04:30:52;9.67;;;5.27;;
18102;SDS011;9178;51.120;6.192;2023-06-14T04:33:19;5.73;;;4.87;;
18102;SDS011;9178;51.120;6.192;2023-06-14T04:35:48;9.17;;;5.40;;
18102;SDS011;9178;51.120;6.192;2023-06-14T04:38:19;5.67;;;5.07;;
18102;SDS011;9178;51.120;6.192;2023-06-14T04:40:52;5.53;;;5.00;;
18102;SDS011;9178;51.120;6.192;2023-06-14T04:43:22;6.37;;;4.87;;
18102;SDS011;9178;51.120;6.192;2023-06-14T04:45:51;7.03;;;4.77;;
18102;SDS011;9178;51.120;6.192;2023-06-14T04:48:19;5.93;;;5.13;;
18102;SDS011;9178;51.120;6.192;2023-06-14T04:50:48;6.23;;;5.20;;
18102;SDS011;9178;51.120;6.192;2023-06-14T04:53:18;6.00;;;5.23;;
18102;SDS011;9178;51.120;6.192;2023-06-14T04:55:53;5.13;;;4.60;;
18102;SDS011;9178;51.120;6.192;2023-06-14T04:58:25;7.40;;;4.73;;
18102;SDS011;9178;51.120;6.192;2023-06-14T05:00:53;9.27;;;4.60;;
18102;SDS011;9178;51.120;6.192;2023-06-14T05:03:25;6.40;;;4.77;;
18102;SDS011;9178;51.120;6.192;2023-06-14T05:05:52;5.80;;;4.30;;
18102;SDS011;9178;51.120;6.192;2023-06-14T05:08:20;6.60;;;4.77;;
18102;SDS011;9178;51.120;6.192;2023-06-14T05:10:49;6.27;;;4.50;;
18102;SDS011;9178;51.120;6.192;2023-06-14T05:13:18;4.90;;;4.40;;
18102;SDS011;9178;51.120;6.192;2023-06-14T05:15:48;5.30;;;4.53;;
18102;SDS011;9178;51.120;6.192;2023-06-14T05:18:15;6.77;;;4.63;;
18102;SDS011;9178;51.120;6.192;2023-06-14T05:20:42;5.37;;;4.70;;
18102;SDS011;9178;51.120;6.192;2023-06-14T05:23:09;7.00;;;4.43;;
18102;SDS011;9178;51.120;6.192;2023-06-14T05:28:11;6.77;;;4.87;;
18102;SDS011;9178;51.120;6.192;2023-06-14T05:30:40;5.10;;;4.60;;
18102;SDS011;9178;51.120;6.192;2023-06-14T05:33:08;5.13;;;3.90;;
18102;SDS011;9178;51.120;6.192;2023-06-14T05:35:35;12.90;;;4.87;;
18102;SDS011;9178;51.120;6.192;2023-06-14T05:38:03;5.27;;;4.27;;
18102;SDS011;9178;51.120;6.192;2023-06-14T05:40:34;4.90;;;4.00;;
18102;SDS011;9178;51.120;6.192;2023-06-14T05:43:01;5.80;;;4.17;;
18102;SDS011;9178;51.120;6.192;2023-06-14T05:45:28;5.53;;;4.10;;
18102;SDS011;9178;51.120;6.192;2023-06-14T05:47:58;6.27;;;4.20;;
18102;SDS011;9178;51.120;6.192;2023-06-14T05:50:26;7.20;;;4.47;;
18102;SDS011;9178;51.120;6.192;2023-06-14T05:52:53;7.00;;;4.13;;
18102;SDS011;9178;51.120;6.192;2023-06-14T05:55:20;5.73;;;4.37;;
18102;SDS011;9178;51.120;6.192;2023-06-14T05:57:48;4.73;;;3.97;;
18102;SDS011;9178;51.120;6.192;2023-06-14T06:00:15;6.87;;;4.30;;
18102;SDS011;9178;51.120;6.192;2023-06-14T06:02:46;8.77;;;4.13;;
18102;SDS011;9178;51.120;6.192;2023-06-14T06:05:16;6.77;;;3.87;;
18102;SDS011;9178;51.120;6.192;2023-06-14T06:07:43;6.60;;;4.20;;
18102;SDS011;9178;51.120;6.192;2023-06-14T06:10:10;8.77;;;4.03;;
18102;SDS011;9178;51.120;6.192;2023-06-14T06:12:38;5.10;;;4.20;;
18102;SDS011;9178;51.120;6.192;2023-06-14T06:15:07;5.32;;;3.60;;
18102;SDS011;9178;51.120;6.192;2023-06-14T06:17:37;6.20;;;3.70;;
18102;SDS011;9178;51.120;6.192;2023-06-14T06:20:04;7.18;;;3.88;;
18102;SDS011;9178;51.120;6.192;2023-06-14T06:22:40;8.60;;;4.00;;
18102;SDS011;9178;51.120;6.192;2023-06-14T06:25:07;5.35;;;4.13;;
18102;SDS011;9178;51.120;6.192;2023-06-14T06:27:40;6.90;;;3.60;;
18102;SDS011;9178;51.120;6.192;2023-06-14T06:30:08;6.80;;;3.63;;
18102;SDS011;9178;51.120;6.192;2023-06-14T06:32:38;6.10;;;3.75;;
18102;SDS011;9178;51.120;6.192;2023-06-14T06:35:06;10.85;;;4.25;;
18102;SDS011;9178;51.120;6.192;2023-06-14T06:37:36;18.40;;;4.85;;
18102;SDS011;9178;51.120;6.192;2023-06-14T06:40:10;6.03;;;3.88;;
18102;SDS011;9178;51.120;6.192;2023-06-14T06:42:40;10.68;;;3.60;;
18102;SDS011;9178;51.120;6.192;2023-06-14T06:45:08;7.43;;;3.78;;
18102;SDS011;9178;51.120;6.192;2023-06-14T06:47:42;19.92;;;4.68;;
18102;SDS011;9178;51.120;6.192;2023-06-14T06:50:09;11.50;;;3.47;;
18102;SDS011;9178;51.120;6.192;2023-06-14T06:52:49;6.10;;;3.10;;
18102;SDS011;9178;51.120;6.192;2023-06-14T06:55:16;5.70;;;3.10;;
18102;SDS011;9178;51.120;6.192;2023-06-14T06:57:44;4.85;;;3.30;;
18102;SDS011;9178;51.120;6.192;2023-06-14T07:00:12;5.88;;;3.65;;
18102;SDS011;9178;51.120;6.192;2023-06-14T07:02:40;7.13;;;2.97;;
18102;SDS011;9178;51.120;6.192;2023-06-14T07:05:08;8.60;;;2.97;;
18102;SDS011;9178;51.120;6.192;2023-06-14T07:07:40;8.73;;;3.50;;
18102;SDS011;9178;51.120;6.192;2023-06-14T07:10:09;5.43;;;3.28;;
18102;SDS011;9178;51.120;6.192;2023-06-14T07:12:36;7.95;;;3.40;;
18102;SDS011;9178;51.120;6.192;2023-06-14T07:15:05;11.20;;;3.80;;
18102;SDS011;9178;51.120;6.192;2023-06-14T07:17:33;11.15;;;3.40;;
18102;SDS011;9178;51.120;6.192;2023-06-14T07:20:01;5.93;;;2.90;;
18102;SDS011;9178;51.120;6.192;2023-06-14T07:22:41;7.82;;;3.15;;
18102;SDS011;9178;51.120;6.192;2023-06-14T07:25:10;4.32;;;2.90;;
18102;SDS011;9178;51.120;6.192;2023-06-14T07:27:39;4.53;;;3.00;;
18102;SDS011;9178;51.120;6.192;2023-06-14T07:30:07;6.28;;;2.92;;
18102;SDS011;9178;51.120;6.192;2023-06-14T07:32:35;3.25;;;2.90;;
18102;SDS011;9178;51.120;6.192;2023-06-14T07:35:02;6.75;;;3.28;;
18102;SDS011;9178;51.120;6.192;2023-06-14T07:37:30;10.27;;;3.05;;
18102;SDS011;9178;51.120;6.192;2023-06-14T07:40:08;7.78;;;3.33;;
18102;SDS011;9178;51.120;6.192;2023-06-14T07:42:38;5.07;;;2.95;;
18102;SDS011;9178;51.120;6.192;2023-06-14T07:45:06;9.15;;;3.20;;
18102;SDS011;9178;51.120;6.192;2023-06-14T07:47:33;4.95;;;2.97;;
18102;SDS011;9178;51.120;6.192;2023-06-14T07:50:01;4.03;;;3.05;;
18102;SDS011;9178;51.120;6.192;2023-06-14T07:52:30;3.28;;;2.50;;
18102;SDS011;9178;51.120;6.192;2023-06-14T07:54:58;4.95;;;2.83;;
18102;SDS011;9178;51.120;6.192;2023-06-14T07:57:26;9.68;;;2.63;;
18102;SDS011;9178;51.120;6.192;2023-06-14T07:59:53;6.85;;;2.72;;
18102;SDS011;9178;51.120;6.192;2023-06-14T08:02:20;5.43;;;2.80;;
18102;SDS011;9178;51.120;6.192;2023-06-14T08:04:47;5.13;;;2.92;;
18102;SDS011;9178;51.120;6.192;2023-06-14T08:07:15;6.05;;;2.70;;
18102;SDS011;9178;51.120;6.192;2023-06-14T08:09:42;6.82;;;2.40;;
18102;SDS011;9178;51.120;6.192;2023-06-14T08:12:12;4.97;;;2.67;;
18102;SDS011;9178;51.120;6.192;2023-06-14T08:14:41;4.22;;;2.40;;
18102;SDS011;9178;51.120;6.192;2023-06-14T08:17:16;4.97;;;2.85;;
18102;SDS011;9178;51.120;6.192;2023-06-14T08:19:43;9.10;;;3.00;;
18102;SDS011;9178;51.120;6.192;2023-06-14T08:22:13;4.10;;;2.35;;
18102;SDS011;9178;51.120;6.192;2023-06-14T08:24:43;5.20;;;2.20;;
18102;SDS011;9178;51.120;6.192;2023-06-14T08:27:10;7.50;;;2.88;;
18102;SDS011;9178;51.120;6.192;2023-06-14T08:29:42;5.10;;;2.15;;
18102;SDS011;9178;51.120;6.192;2023-06-14T08:32:12;8.95;;;2.50;;
18102;SDS011;9178;51.120;6.192;2023-06-14T08:34:39;2.28;;;1.95;;
18102;SDS011;9178;51.120;6.192;2023-06-14T08:37:06;4.05;;;2.10;;
18102;SDS011;9178;51.120;6.192;2023-06-14T08:39:35;7.45;;;2.35;;
18102;SDS011;9178;51.120;6.192;2023-06-14T08:42:03;3.70;;;2.22;;
18102;SDS011;9178;51.120;6.192;2023-06-14T08:44:32;5.10;;;2.28;;
18102;SDS011;9178;51.120;6.192;2023-06-14T08:47:01;40.65;;;5.95;;
18102;SDS011;9178;51.120;6.192;2023-06-14T08:49:28;5.22;;;1.83;;
18102;SDS011;9178;51.120;6.192;2023-06-14T08:51:57;2.55;;;1.90;;
18102;SDS011;9178;51.120;6.192;2023-06-14T08:54:32;2.72;;;1.90;;
18102;SDS011;9178;51.120;6.192;2023-06-14T08:57:01;4.30;;;1.55;;
18102;SDS011;9178;51.120;6.192;2023-06-14T08:59:37;5.93;;;1.90;;
18102;SDS011;9178;51.120;6.192;2023-06-14T09:02:18;4.32;;;1.88;;
18102;SDS011;9178;51.120;6.192;2023-06-14T09:04:49;3.33;;;1.33;;
18102;SDS011;9178;51.120;6.192;2023-06-14T09:07:16;3.08;;;0.95;;
18102;SDS011;9178;51.120;6.192;2023-06-14T09:09:43;2.45;;;1.02;;
18102;SDS011;9178;51.120;6.192;2023-06-14T09:12:10;2.15;;;1.00;;
18102;SDS011;9178;51.120;6.192;2023-06-14T09:14:39;2.10;;;1.00;;
18102;SDS011;9178;51.120;6.192;2023-06-14T09:17:08;2.75;;;1.13;;
18102;SDS011;9178;51.120;6.192;2023-06-14T09:19:41;1.25;;;1.10;;
18102;SDS011;9178;51.120;6.192;2023-06-14T09:22:08;2.25;;;1.17;;
18102;SDS011;9178;51.120;6.192;2023-06-14T09:24:46;3.67;;;0.98;;
18102;SDS011;9178;51.120;6.192;2023-06-14T09:27:14;1.20;;;1.00;;
18102;SDS011;9178;51.120;6.192;2023-06-14T09:29:45;1.20;;;1.10;;
18102;SDS011;9178;51.120;6.192;2023-06-14T09:32:13;1.75;;;1.08;;
18102;SDS011;9178;51.120;6.192;2023-06-14T09:34:51;2.15;;;1.00;;
18102;SDS011;9178;51.120;6.192;2023-06-14T09:37:28;1.10;;;1.10;;
18102;SDS011;9178;51.120;6.192;2023-06-14T09:39:57;3.33;;;1.20;;
18102;SDS011;9178;51.120;6.192;2023-06-14T09:42:29;1.80;;;1.10;;
18102;SDS011;9178;51.120;6.192;2023-06-14T09:45:08;2.22;;;1.38;;
18102;SDS011;9178;51.120;6.192;2023-06-14T09:47:44;1.30;;;1.20;;
18102;SDS011;9178;51.120;6.192;2023-06-14T09:50:17;2.80;;;1.23;;
18102;SDS011;9178;51.120;6.192;2023-06-14T09:55:58;2.83;;;1.20;;
18102;SDS011;9178;51.120;6.192;2023-06-14T09:58:28;6.65;;;1.10;;
18102;SDS011;9178;51.120;6.192;2023-06-14T10:01:01;3.03;;;1.30;;
18102;SDS011;9178;51.120;6.192;2023-06-14T10:03:30;4.60;;;1.38;;
18102;SDS011;9178;51.120;6.192;2023-06-14T10:06:06;5.28;;;1.58;;
18102;SDS011;9178;51.120;6.192;2023-06-14T10:08:41;4.53;;;1.20;;
18102;SDS011;9178;51.120;6.192;2023-06-14T10:11:17;3.03;;;1.10;;
18102;SDS011;9178;51.120;6.192;2023-06-14T10:13:50;2.97;;;1.38;;
18102;SDS011;9178;51.120;6.192;2023-06-14T10:16:23;3.78;;;1.27;;
18102;SDS011;9178;51.120;6.192;2023-06-14T10:18:59;3.70;;;1.30;;
18102;SDS011;9178;51.120;6.192;2023-06-14T10:21:43;1.90;;;1.20;;
18102;SDS011;9178;51.120;6.192;2023-06-14T10:24:30;1.80;;;1.30;;
18102;SDS011;9178;51.120;6.192;2023-06-14T10:27:03;2.55;;;1.20;;
18102;SDS011;9178;51.120;6.192;2023-06-14T10:29:35;4.93;;;1.48;;
18102;SDS011;9178;51.120;6.192;2023-06-14T10:32:29;3.30;;;1.20;;
18102;SDS011;9178;51.120;6.192;2023-06-14T10:35:04;3.30;;;1.30;;
18102;SDS011;9178;51.120;6.192;2023-06-14T10:37:36;2.38;;;1.67;;
18102;SDS011;9178;51.120;6.192;2023-06-14T10:40:29;2.00;;;1.20;;
18102;SDS011;9178;51.120;6.192;2023-06-14T10:46:36;3.20;;;1.20;;
18102;SDS011;9178;51.120;6.192;2023-06-14T10:49:15;6.32;;;1.83;;
18102;SDS011;9178;51.120;6.192;2023-06-14T10:51:45;4.38;;;1.40;;
18102;SDS011;9178;51.120;6.192;2023-06-14T10:54:23;1.80;;;1.40;;
18102;SDS011;9178;51.120;6.192;2023-06-14T10:56:51;6.03;;;1.75;;
18102;SDS011;9178;51.120;6.192;2023-06-14T10:59:22;1.15;;;1.05;;
18102;SDS011;9178;51.120;6.192;2023-06-14T11:01:55;6.13;;;1.67;;
18102;SDS011;9178;51.120;6.192;2023-06-14T11:04:48;4.65;;;1.40;;
18102;SDS011;9178;51.120;6.192;2023-06-14T11:07:25;6.40;;;1.52;;
18102;SDS011;9178;51.120;6.192;2023-06-14T11:10:09;6.82;;;1.48;;
18102;SDS011;9178;51.120;6.192;2023-06-14T11:12:44;5.40;;;1.42;;
18102;SDS011;9178;51.120;6.192;2023-06-14T11:15:19;5.22;;;1.60;;
18102;SDS011;9178;51.120;6.192;2023-06-14T11:17:49;1.30;;;1.20;;
18102;SDS011;9178;51.120;6.192;2023-06-14T11:20:19;3.55;;;1.60;;
18102;SDS011;9178;51.120;6.192;2023-06-14T11:22:58;6.35;;;1.92;;
18102;SDS011;9178;51.120;6.192;2023-06-14T11:25:27;4.93;;;2.10;;
18102;SDS011;9178;51.120;6.192;2023-06-14T11:27:55;3.70;;;1.58;;
18102;SDS011;9178;51.120;6.192;2023-06-14T11:30:24;8.95;;;1.80;;
18102;SDS011;9178;51.120;6.192;2023-06-14T11:32:52;4.05;;;1.30;;
18102;SDS011;9178;51.120;6.192;2023-06-14T11:35:22;6.00;;;1.55;;
18102;SDS011;9178;51.120;6.192;2023-06-14T11:38:01;2.50;;;1.60;;
18102;SDS011;9178;51.120;6.192;2023-06-14T11:40:30;4.05;;;1.60;;
18102;SDS011;9178;51.120;6.192;2023-06-14T11:42:58;3.80;;;1.55;;
18102;SDS011;9178;51.120;6.192;2023-06-14T11:45:37;3.58;;;1.23;;
18102;SDS011;9178;51.120;6.192;2023-06-14T11:48:04;5.20;;;1.40;;
18102;SDS011;9178;51.120;6.192;2023-06-14T11:50:49;3.50;;;1.52;;
18102;SDS011;9178;51.120;6.192;2023-06-14T11:53:19;2.95;;;1.35;;
18102;SDS011;9178;51.120;6.192;2023-06-14T11:55:48;15.10;;;1.85;;
18102;SDS011;9178;51.120;6.192;2023-06-14T11:58:15;12.82;;;2.13;;
18102;SDS011;9178;51.120;6.192;2023-06-14T12:00:48;3.17;;;1.45;;
18102;SDS011;9178;51.120;6.192;2023-06-14T12:03:16;1.02;;;1.00;;
18102;SDS011;9178;51.120;6.192;2023-06-14T12:05:43;3.78;;;1.15;;
18102;SDS011;9178;51.120;6.192;2023-06-14T12:08:16;2.45;;;1.00;;
18102;SDS011;9178;51.120;6.192;2023-06-14T12:10:44;1.33;;;0.82;;
18102;SDS011;9178;51.120;6.192;2023-06-14T12:13:16;1.65;;;1.10;;
18102;SDS011;9178;51.120;6.192;2023-06-14T12:15:44;1.42;;;1.02;;
18102;SDS011;9178;51.120;6.192;2023-06-14T12:18:20;1.30;;;0.85;;
18102;SDS011;9178;51.120;6.192;2023-06-14T12:20:49;5.05;;;1.30;;
18102;SDS011;9178;51.120;6.192;2023-06-14T12:23:17;2.67;;;1.10;;
18102;SDS011;9178;51.120;6.192;2023-06-14T12:25:44;2.60;;;0.93;;
18102;SDS011;9178;51.120;6.192;2023-06-14T12:28:11;3.78;;;1.00;;
18102;SDS011;9178;51.120;6.192;2023-06-14T12:30:42;4.28;;;0.98;;
18102;SDS011;9178;51.120;6.192;2023-06-14T12:33:14;2.45;;;0.95;;
18102;SDS011;9178;51.120;6.192;2023-06-14T12:35:41;7.15;;;1.30;;
18102;SDS011;9178;51.120;6.192;2023-06-14T12:38:12;2.30;;;1.13;;
18102;SDS011;9178;51.120;6.192;2023-06-14T12:40:40;3.35;;;1.10;;
18102;SDS011;9178;51.120;6.192;2023-06-14T12:43:07;1.67;;;0.80;;
18102;SDS011;9178;51.120;6.192;2023-06-14T12:45:35;0.75;;;0.75;;
18102;SDS011;9178;51.120;6.192;2023-06-14T12:48:04;3.50;;;1.20;;
18102;SDS011;9178;51.120;6.192;2023-06-14T12:50:33;4.55;;;1.02;;
18102;SDS011;9178;51.120;6.192;2023-06-14T12:53:01;3.90;;;1.10;;
18102;SDS011;9178;51.120;6.192;2023-06-14T12:55:31;1.33;;;1.20;;
18102;SDS011;9178;51.120;6.192;2023-06-14T12:57:59;5.85;;;1.48;;
18102;SDS011;9178;51.120;6.192;2023-06-14T13:00:27;1.23;;;1.13;;
18102;SDS011;9178;51.120;6.192;2023-06-14T13:02:55;3.25;;;1.13;;
18102;SDS011;9178;51.120;6.192;2023-06-14T13:05:24;2.72;;;1.20;;
18102;SDS011;9178;51.120;6.192;2023-06-14T13:07:54;1.65;;;1.20;;
18102;SDS011;9178;51.120;6.192;2023-06-14T13:10:37;2.10;;;1.20;;
18102;SDS011;9178;51.120;6.192;2023-06-14T13:13:05;1.67;;;1.50;;
18102;SDS011;9178;51.120;6.192;2023-06-14T13:15:32;2.80;;;1.27;;
18102;SDS011;9178;51.120;6.192;2023-06-14T13:18:02;2.97;;;1.10;;
18102;SDS011;9178;51.120;6.192;2023-06-14T13:20:32;1.95;;;1.10;;
18102;SDS011;9178;51.120;6.192;2023-06-14T13:23:01;3.58;;;1.30;;
18102;SDS011;9178;51.120;6.192;2023-06-14T13:25:29;6.80;;;1.80;;
18102;SDS011;9178;51.120;6.192;2023-06-14T13:27:56;2.60;;;1.25;;
18102;SDS011;9178;51.120;6.192;2023-06-14T13:30:28;2.10;;;1.30;;
18102;SDS011;9178;51.120;6.192;2023-06-14T13:32:59;2.25;;;1.20;;
18102;SDS011;9178;51.120;6.192;2023-06-14T13:35:27;2.25;;;1.05;;
18102;SDS011;9178;51.120;6.192;2023-06-14T13:38:04;1.50;;;1.20;;
18102;SDS011;9178;51.120;6.192;2023-06-14T13:40:38;2.70;;;1.00;;
18102;SDS011;9178;51.120;6.192;2023-06-14T13:43:08;1.80;;;1.15;;
18102;SDS011;9178;51.120;6.192;2023-06-14T13:45:35;1.42;;;1.30;;
18102;SDS011;9178;51.120;6.192;2023-06-14T13:48:03;4.63;;;1.20;;
18102;SDS011;9178;51.120;6.192;2023-06-14T13:50:30;1.67;;;1.10;;
18102;SDS011;9178;51.120;6.192;2023-06-14T13:53:10;1.30;;;1.15;;
18102;SDS011;9178;51.120;6.192;2023-06-14T13:55:48;1.30;;;1.10;;
18102;SDS011;9178;51.120;6.192;2023-06-14T13:58:18;1.83;;;1.10;;
18102;SDS011;9178;51.120;6.192;2023-06-14T14:00:53;1.98;;;1.13;;
18102;SDS011;9178;51.120;6.192;2023-06-14T14:03:20;1.65;;;1.10;;
18102;SDS011;9178;51.120;6.192;2023-06-14T14:05:49;1.48;;;0.85;;
18102;SDS011;9178;51.120;6.192;2023-06-14T14:08:29;3.65;;;1.02;;
18102;SDS011;9178;51.120;6.192;2023-06-14T14:10:56;7.72;;;1.45;;
18102;SDS011;9178;51.120;6.192;2023-06-14T14:13:25;1.90;;;0.90;;
18102;SDS011;9178;51.120;6.192;2023-06-14T14:15:57;1.10;;;1.00;;
18102;SDS011;9178;51.120;6.192;2023-06-14T14:18:25;2.42;;;0.88;;
18102;SDS011;9178;51.120;6.192;2023-06-14T14:20:53;1.77;;;0.80;;
18102;SDS011;9178;51.120;6.192;2023-06-14T14:23:33;15.77;;;1.88;;
18102;SDS011;9178;51.120;6.192;2023-06-14T14:26:00;2.55;;;1.23;;
18102;SDS011;9178;51.120;6.192;2023-06-14T14:28:31;1.92;;;1.00;;
18102;SDS011;9178;51.120;6.192;2023-06-14T14:31:19;1.00;;;0.90;;
18102;SDS011;9178;51.120;6.192;2023-06-14T14:33:47;1.67;;;1.15;;
18102;SDS011;9178;51.120;6.192;2023-06-14T14:36:16;2.03;;;1.02;;
18102;SDS011;9178;51.120;6.192;2023-06-14T14:38:45;1.20;;;1.10;;
18102;SDS011;9178;51.120;6.192;2023-06-14T14:41:13;3.63;;;1.20;;
18102;SDS011;9178;51.120;6.192;2023-06-14T14:43:41;2.22;;;1.02;;
18102;SDS011;9178;51.120;6.192;2023-06-14T14:46:08;2.00;;;0.90;;
18102;SDS011;9178;51.120;6.192;2023-06-14T14:51:18;0.80;;;0.80;;
18102;SDS011;9178;51.120;6.192;2023-06-14T14:53:46;2.00;;;1.13;;
18102;SDS011;9178;51.120;6.192;2023-06-14T14:56:14;6.47;;;1.00;;
18102;SDS011;9178;51.120;6.192;2023-06-14T14:58:45;6.15;;;1.45;;
18102;SDS011;9178;51.120;6.192;2023-06-14T15:01:21;0.85;;;0.80;;
18102;SDS011;9178;51.120;6.192;2023-06-14T15:03:50;2.75;;;0.90;;
18102;SDS011;9178;51.120;6.192;2023-06-14T15:06:31;4.90;;;1.15;;
18102;SDS011;9178;51.120;6.192;2023-06-14T15:09:17;1.55;;;0.95;;
18102;SDS011;9178;51.120;6.192;2023-06-14T15:11:47;3.88;;;1.13;;
18102;SDS011;9178;51.120;6.192;2023-06-14T15:14:17;4.22;;;0.88;;
18102;SDS011;9178;51.120;6.192;2023-06-14T15:16:47;5.78;;;1.00;;
18102;SDS011;9178;51.120;6.192;2023-06-14T15:19:17;2.10;;;1.25;;
18102;SDS011;9178;51.120;6.192;2023-06-14T15:21:44;1.20;;;0.82;;
18102;SDS011;9178;51.120;6.192;2023-06-14T15:24:12;4.20;;;0.90;;
18102;SDS011;9178;51.120;6.192;2023-06-14T15:26:43;2.67;;;1.33;;
18102;SDS011;9178;51.120;6.192;2023-06-14T15:29:13;4.05;;;1.58;;
18102;SDS011;9178;51.120;6.192;2023-06-14T15:31:40;1.63;;;0.95;;
18102;SDS011;9178;51.120;6.192;2023-06-14T15:34:13;1.42;;;0.82;;